Time;durP1;ratioP1;P1;durP2;ratioP2;P2;SDS_P1;SDS_P2;PMS_P1;PMS_P2;Temp;Humidity;BMP_temperature;BMP_pressure;BME280_temperature;BME280_humidity;BME280_pressure;Samples;Min_cycle;Max_cycle;Signal;HPM_P1;HPM_P2
2022/05/18 00:02:02;;;;;;;5.65;3.00;;;17.90;99.90;;;;;;5071310;28;20032;-83
2022/05/18 00:04:28;;;;;;;5.25;2.80;;;17.90;99.90;;;;;;5057397;28;20028;-84
2022/05/18 00:06:54;;;;;;;5.72;3.15;;;18.50;99.90;;;;;;5051564;28;20043;-81
2022/05/18 00:09:20;;;;;;;6.45;3.58;;;17.90;99.90;;;;;;5053574;28;20066;-82
2022/05/18 00:11:45;;;;;;;4.90;3.08;;;18.00;99.90;;;;;;5065137;28;20033;-86
2022/05/18 00:14:11;;;;;;;6.43;3.22;;;17.80;99.90;;;;;;5054958;28;20040;-84
2022/05/18 00:16:37;;;;;;;5.00;2.72;;;17.80;99.90;;;;;;5047133;28;20035;-82
2022/05/18 00:19:02;;;;;;;6.70;3.33;;;17.70;99.90;;;;;;5049586;28;20303;-82
2022/05/18 00:21:30;;;;;;;5.07;3.20;;;18.30;99.90;;;;;;5048581;28;20127;-81
2022/05/18 00:23:58;;;;;;;4.97;2.92;;;17.70;99.90;;;;;;5057482;28;20025;-82
2022/05/18 00:26:25;;;;;;;4.15;2.83;;;17.70;99.90;;;;;;5061677;28;20028;-81
2022/05/18 00:28:51;;;;;;;4.38;2.67;;;17.80;99.90;;;;;;5062277;28;20032;-81
2022/05/18 00:31:18;;;;;;;5.53;2.75;;;17.60;99.90;;;;;;5059946;28;20047;-81
2022/05/18 00:33:45;;;;;;;4.35;2.50;;;17.60;99.90;;;;;;5057433;28;20125;-82
2022/05/18 00:36:11;;;;;;;3.95;2.67;;;17.70;99.90;;;;;;5056924;28;20036;-81
2022/05/18 00:38:36;;;;;;;5.97;3.08;;;17.50;99.90;;;;;;5058173;28;20033;-82
2022/05/18 00:41:02;;;;;;;4.68;2.72;;;17.60;99.90;;;;;;5056691;28;20029;-81
2022/05/18 00:43:31;;;;;;;5.90;3.40;;;17.50;99.90;;;;;;5049816;28;20067;-80
2022/05/18 00:46:03;;;;;;;7.03;3.42;;;17.60;99.90;;;;;;5071963;28;20048;-80
2022/05/18 00:48:29;;;;;;;5.93;3.00;;;17.50;99.90;;;;;;5069609;28;20695;-81
2022/05/18 00:50:56;;;;;;;5.70;2.85;;;17.50;99.90;;;;;;5074316;28;20039;-83
2022/05/18 00:53:42;;;;;;;8.15;3.83;;;17.40;99.90;;;;;;5054793;28;20028;-81
2022/05/18 00:56:12;;;;;;;6.82;3.00;;;17.40;99.90;;;;;;5064237;28;20035;-82
2022/05/18 00:58:57;;;;;;;4.07;2.65;;;17.50;99.90;;;;;;5061624;28;20056;-84
2022/05/18 01:01:24;;;;;;;6.07;2.65;;;17.40;99.90;;;;;;5072908;28;20094;-80
2022/05/18 01:03:52;;;;;;;4.40;3.03;;;17.40;99.90;;;;;;5060826;28;20095;-83
2022/05/18 01:06:29;;;;;;;5.50;3.58;;;17.30;99.90;;;;;;5062944;28;20029;-83
2022/05/18 01:09:04;;;;;;;7.13;4.47;;;17.30;99.90;;;;;;5063983;28;20098;-80
2022/05/18 01:11:32;;;;;;;4.93;3.00;;;17.30;99.90;;;;;;5059068;28;20111;-82
2022/05/18 01:13:57;;;;;;;6.03;3.17;;;17.20;99.90;;;;;;5056049;28;20028;-80
2022/05/18 01:16:25;;;;;;;5.07;2.80;;;17.40;99.90;;;;;;5054343;28;20066;-80
2022/05/18 01:18:56;;;;;;;6.00;2.97;;;17.20;99.90;;;;;;5054302;28;21036;-83
2022/05/18 01:21:23;;;;;;;;;;;17.20;99.90;;;;;;5058069;28;20040;-81
2022/05/18 01:24:29;;;;;;;5.15;2.95;;;18.10;99.90;;;;;;5063859;28;19991;-82
2022/05/18 01:26:56;;;;;;;5.18;3.00;;;17.20;99.90;;;;;;5061730;28;20036;-83
2022/05/18 01:29:24;;;;;;;5.57;3.10;;;17.40;99.90;;;;;;5061017;28;20085;-81
2022/05/18 01:31:56;;;;;;;4.43;2.60;;;17.10;99.90;;;;;;5067494;28;20028;-81
2022/05/18 01:34:25;;;;;;;5.25;3.22;;;18.30;99.90;;;;;;5070993;28;20028;-81
2022/05/18 01:36:51;;;;;;;4.13;2.70;;;17.40;99.90;;;;;;5058228;28;20028;-80
2022/05/18 01:39:26;;;;;;;5.55;3.28;;;17.00;99.90;;;;;;5072589;28;20027;-81
2022/05/18 01:42:14;;;;;;;8.23;5.00;;;18.90;99.90;;;;;;5070471;28;20063;-84
2022/05/18 01:44:41;;;;;;;6.57;3.33;;;16.90;99.90;;;;;;5069768;28;20028;-84
2022/05/18 01:47:07;;;;;;;5.03;2.85;;;17.50;99.90;;;;;;5059900;28;20017;-81
2022/05/18 01:49:35;;;;;;;8.60;4.68;;;16.90;99.90;;;;;;5069368;28;20031;-81
2022/05/18 01:52:01;;;;;;;5.35;3.50;;;16.90;99.90;;;;;;5064295;28;20021;-79
2022/05/18 01:54:27;;;;;;;7.05;4.68;;;16.90;99.90;;;;;;5070613;28;20043;-80
2022/05/18 01:56:57;;;;;;;6.10;3.65;;;17.10;99.90;;;;;;5060922;28;20025;-82
2022/05/18 01:59:23;;;;;;;;;;;16.90;99.90;;;;;;5065583;28;20036;-79
2022/05/18 02:01:48;;;;;;;6.32;3.20;;;17.30;99.90;;;;;;5065595;28;20394;-80
2022/05/18 02:04:17;;;;;;;8.15;3.75;;;17.00;99.90;;;;;;5075704;28;20055;-83
2022/05/18 02:06:42;;;;;;;5.63;2.90;;;16.80;99.90;;;;;;5068530;28;20030;-83
2022/05/18 02:09:08;;;;;;;4.50;3.13;;;18.50;99.90;;;;;;5061459;28;20048;-79
2022/05/18 02:11:35;;;;;;;8.45;3.92;;;16.70;99.90;;;;;;5065759;28;20086;-85
2022/05/18 02:14:01;;;;;;;7.03;3.63;;;16.80;99.90;;;;;;5068343;28;20032;-81
2022/05/18 02:16:26;;;;;;;4.55;3.17;;;16.70;99.90;;;;;;5069042;28;20043;-83
2022/05/18 02:18:52;;;;;;;5.88;3.40;;;16.60;99.90;;;;;;5069180;28;20501;-83
2022/05/18 02:21:18;;;;;;;5.07;3.15;;;16.80;99.90;;;;;;5070341;28;20424;-81
2022/05/18 02:23:43;;;;;;;5.75;3.20;;;16.50;99.90;;;;;;5060616;28;20028;-82
2022/05/18 02:26:15;;;;;;;6.05;3.83;;;16.50;99.90;;;;;;5060148;28;20399;-81
2022/05/18 02:28:41;;;;;;;5.20;3.08;;;16.40;99.90;;;;;;5066783;28;20021;-80
2022/05/18 02:31:08;;;;;;;5.18;3.60;;;16.50;99.90;;;;;;5064988;28;20075;-82
2022/05/18 02:33:34;;;;;;;6.90;3.35;;;16.40;99.90;;;;;;5063137;28;20036;-82
2022/05/18 02:36:00;;;;;;;6.30;3.30;;;16.50;99.90;;;;;;5066904;28;20034;-81
2022/05/18 02:38:25;;;;;;;5.55;3.05;;;16.40;99.90;;;;;;5066849;28;20486;-81
2022/05/18 02:40:51;;;;;;;4.05;3.10;;;16.40;99.90;;;;;;5069127;28;20051;-79
2022/05/18 02:43:17;;;;;;;5.60;3.67;;;16.40;99.90;;;;;;5073778;28;20029;-82
2022/05/18 02:45:43;;;;;;;5.13;3.30;;;16.30;99.90;;;;;;5067385;28;20446;-81
2022/05/18 02:48:08;;;;;;;7.35;3.60;;;16.30;99.90;;;;;;5066975;28;20066;-82
2022/05/18 02:50:34;;;;;;;5.18;3.40;;;16.30;99.90;;;;;;5048509;28;20047;-81
2022/05/18 02:53:01;;;;;;;6.10;3.42;;;16.30;99.90;;;;;;5062646;28;20029;-82
2022/05/18 02:58:11;;;;;;;5.47;3.33;;;16.30;99.90;;;;;;5054439;28;21114;-83
2022/05/18 03:00:37;;;;;;;6.10;3.30;;;16.20;99.90;;;;;;5062865;28;20116;-81
2022/05/18 03:03:03;;;;;;;4.88;3.20;;;16.20;99.90;;;;;;5058317;28;20031;-81
2022/05/18 03:05:29;;;;;;;8.05;4.28;;;16.20;99.90;;;;;;5060314;28;20032;-79
2022/05/18 03:07:55;;;;;;;6.50;3.17;;;16.20;99.90;;;;;;5058905;28;20032;-82
2022/05/18 03:10:20;;;;;;;4.90;3.17;;;16.20;99.90;;;;;;5062577;28;20037;-81
2022/05/18 03:12:46;;;;;;;7.68;3.40;;;16.20;99.90;;;;;;5062737;28;20055;-79
2022/05/18 03:15:13;;;;;;;7.03;3.70;;;16.30;99.90;;;;;;5059950;28;20025;-83
2022/05/18 03:17:39;;;;;;;6.50;3.50;;;16.20;99.90;;;;;;5066131;28;20029;-79
2022/05/18 03:20:07;;;;;;;5.90;3.30;;;16.10;99.90;;;;;;5063774;28;20434;-81
2022/05/18 03:25:18;;;;;;;6.70;3.33;;;16.10;99.90;;;;;;5066274;28;20043;-82
2022/05/18 03:27:44;;;;;;;5.15;2.90;;;16.10;99.90;;;;;;5064020;28;20048;-82
2022/05/18 03:30:12;;;;;;;5.25;3.30;;;16.00;99.90;;;;;;5048057;28;20040;-81
2022/05/18 03:32:39;;;;;;;5.43;3.15;;;16.00;99.90;;;;;;5062973;28;20037;-81
2022/05/18 03:35:06;;;;;;;5.38;3.65;;;16.00;99.90;;;;;;5055192;28;20635;-82
2022/05/18 03:37:32;;;;;;;5.28;3.50;;;16.00;99.90;;;;;;5050740;28;20036;-81
2022/05/18 03:39:57;;;;;;;4.65;3.65;;;16.00;99.90;;;;;;5065463;28;20035;-81
2022/05/18 03:42:23;;;;;;;5.60;3.70;;;16.00;99.90;;;;;;5064347;28;20032;-82
2022/05/18 03:44:49;;;;;;;5.32;4.38;;;15.90;99.90;;;;;;5076262;28;20024;-83
2022/05/18 03:47:14;;;;;;;7.07;3.97;;;15.90;99.90;;;;;;5065175;28;20047;-83
2022/05/18 03:49:40;;;;;;;7.93;4.20;;;16.10;99.90;;;;;;5069145;28;20028;-81
2022/05/18 03:52:06;;;;;;;6.97;3.70;;;15.80;99.90;;;;;;5066633;28;20024;-80
2022/05/18 03:54:33;;;;;;;5.85;3.30;;;15.90;99.90;;;;;;5073089;28;20029;-83
2022/05/18 03:56:59;;;;;;;4.43;3.10;;;16.10;99.90;;;;;;5060448;28;20403;-81
2022/05/18 03:59:25;;;;;;;5.90;3.53;;;15.90;99.90;;;;;;5068161;28;20029;-82
2022/05/18 04:01:50;;;;;;;5.95;3.50;;;15.90;99.90;;;;;;5074607;28;20211;-79
2022/05/18 04:04:16;;;;;;;6.50;3.78;;;15.90;99.90;;;;;;5071990;28;20024;-83
2022/05/18 04:06:41;;;;;;;9.25;4.53;;;15.90;99.90;;;;;;5076063;28;20103;-83
2022/05/18 04:09:09;;;;;;;7.10;4.75;;;15.90;99.90;;;;;;5075529;28;20067;-81
2022/05/18 04:11:35;;;;;;;8.80;4.43;;;15.90;99.90;;;;;;5082226;28;20055;-81
2022/05/18 04:14:01;;;;;;;6.38;4.22;;;16.00;99.90;;;;;;5073449;28;20029;-83
2022/05/18 04:16:27;;;;;;;9.07;4.85;;;15.90;99.90;;;;;;5061609;28;20040;-81
2022/05/18 04:18:52;;;;;;;6.65;4.60;;;15.90;99.90;;;;;;5056360;28;20028;-80
2022/05/18 04:21:18;;;;;;;8.05;4.70;;;15.90;99.90;;;;;;5052593;28;20029;-83
2022/05/18 04:23:44;;;;;;;6.10;4.03;;;16.00;99.90;;;;;;5056084;28;20066;-82
2022/05/18 04:26:11;;;;;;;5.78;4.05;;;16.00;99.90;;;;;;5057675;28;20027;-82
2022/05/18 04:28:36;;;;;;;7.05;3.60;;;16.00;99.90;;;;;;5051561;28;20055;-83
2022/05/18 04:31:03;;;;;;;8.00;4.22;;;17.90;99.90;;;;;;5058654;28;20028;-82
2022/05/18 04:33:29;;;;;;;9.20;5.55;;;16.80;99.90;;;;;;5052404;28;20079;-80
2022/05/18 04:35:54;;;;;;;11.73;6.65;;;16.10;99.90;;;;;;5055527;28;21594;-80
2022/05/18 04:38:22;;;;;;;10.65;5.93;;;16.70;99.90;;;;;;5055146;28;20075;-84
2022/05/18 04:40:48;;;;;;;8.43;6.00;;;16.00;99.90;;;;;;5053823;28;20036;-83
2022/05/18 04:43:18;;;;;;;10.15;5.57;;;17.00;99.90;;;;;;5062346;28;20509;-81
2022/05/18 04:45:46;;;;;;;8.25;5.28;;;16.00;99.90;;;;;;5063733;28;20024;-82
2022/05/18 04:48:17;;;;;;;7.30;5.20;;;16.70;99.90;;;;;;5055749;28;20028;-81
2022/05/18 04:50:44;;;;;;;8.00;5.70;;;16.30;99.90;;;;;;5058289;28;20488;-81
2022/05/18 04:53:10;;;;;;;8.77;5.43;;;16.30;99.90;;;;;;5055180;28;20112;-79
2022/05/18 04:55:36;;;;;;;9.05;5.13;;;16.90;99.90;;;;;;5063376;28;20035;-81
2022/05/18 04:58:03;;;;;;;13.73;5.78;;;16.30;99.90;;;;;;5068972;28;20032;-83
2022/05/18 05:00:29;;;;;;;44.80;10.38;;;16.40;99.90;;;;;;5063012;28;20044;-80
2022/05/18 05:02:57;;;;;;;31.52;9.18;;;16.40;99.90;;;;;;5064944;28;20029;-81
2022/05/18 05:05:24;;;;;;;13.20;6.32;;;16.50;99.90;;;;;;5071978;28;20020;-80
2022/05/18 05:07:50;;;;;;;13.05;4.47;;;16.60;99.90;;;;;;5062483;28;20050;-82
2022/05/18 05:10:20;;;;;;;6.63;4.28;;;16.70;99.90;;;;;;5069106;28;20029;-85
2022/05/18 05:12:46;;;;;;;7.40;3.60;;;16.70;99.90;;;;;;5073714;28;20036;-84
2022/05/18 05:15:12;;;;;;;7.72;4.20;;;17.40;99.90;;;;;;5067401;28;20037;-84
2022/05/18 05:17:39;;;;;;;5.82;3.70;;;16.80;99.90;;;;;;5081665;28;20075;-85
2022/05/18 05:20:06;;;;;;;6.53;3.80;;;16.90;99.90;;;;;;5081986;28;20087;-83
2022/05/18 05:22:31;;;;;;;5.80;3.70;;;17.10;99.90;;;;;;5075991;28;20029;-85
2022/05/18 05:24:57;;;;;;;4.68;3.45;;;17.70;99.90;;;;;;5057485;28;20044;-82
2022/05/18 05:27:24;;;;;;;6.75;3.55;;;18.60;99.90;;;;;;5048878;28;20510;-83
2022/05/18 05:29:50;;;;;;;5.15;3.17;;;19.50;99.90;;;;;;5065073;28;20111;-83
2022/05/18 05:32:16;;;;;;;6.70;3.20;;;19.50;99.90;;;;;;5077006;28;20484;-85
2022/05/18 05:34:42;;;;;;;5.32;3.28;;;20.70;99.90;;;;;;5060596;28;20043;-83
2022/05/18 05:37:08;;;;;;;5.03;3.28;;;21.00;99.90;;;;;;5060501;28;20029;-79
2022/05/18 05:39:34;;;;;;;4.93;3.10;;;21.10;99.90;;;;;;5055054;28;20028;-86
2022/05/18 05:42:00;;;;;;;6.80;3.55;;;21.00;99.90;;;;;;5058372;28;20039;-82
2022/05/18 05:44:28;;;;;;;9.23;4.00;;;21.70;99.90;;;;;;5061317;28;20040;-83
2022/05/18 05:46:53;;;;;;;6.93;3.90;;;21.60;99.90;;;;;;5062419;28;20095;-81
2022/05/18 05:49:19;;;;;;;4.97;3.80;;;21.20;99.90;;;;;;5059175;28;20021;-82
2022/05/18 05:51:45;;;;;;;5.07;3.72;;;21.00;99.90;;;;;;5057836;28;20029;-83
2022/05/18 05:54:11;;;;;;;6.30;3.80;;;20.90;99.90;;;;;;5061771;28;20040;-83
2022/05/18 05:56:37;;;;;;;6.88;3.85;;;22.10;99.90;;;;;;5057191;28;20028;-81
2022/05/18 05:59:03;;;;;;;7.25;3.47;;;21.10;99.90;;;;;;5063345;28;20091;-83
2022/05/18 06:01:29;;;;;;;6.97;3.08;;;21.20;99.90;;;;;;5073091;28;20075;-82
2022/05/18 06:03:55;;;;;;;6.00;3.42;;;21.70;99.90;;;;;;5072208;28;20533;-85
2022/05/18 06:06:21;;;;;;;5.43;3.20;;;21.40;99.90;;;;;;5071119;28;20033;-83
2022/05/18 06:08:47;;;;;;;8.27;3.17;;;21.30;99.90;;;;;;5071625;28;20031;-83
2022/05/18 06:11:13;;;;;;;6.65;3.10;;;21.10;99.90;;;;;;5072256;28;20041;-82
2022/05/18 06:13:39;;;;;;;5.97;3.20;;;20.70;99.90;;;;;;5066702;28;20066;-82
2022/05/18 06:16:09;;;;;;;4.68;3.03;;;21.40;99.90;;;;;;5061726;28;20029;-84
2022/05/18 06:18:37;;;;;;;8.23;2.83;;;21.10;99.80;;;;;;5065687;28;20034;-82
2022/05/18 06:21:03;;;;;;;7.88;3.20;;;21.60;99.50;;;;;;5054395;28;20036;-82
2022/05/18 06:23:29;;;;;;;6.85;2.70;;;21.70;99.70;;;;;;5064249;28;20032;-84
2022/05/18 06:26:02;;;;;;;5.43;3.15;;;21.80;99.30;;;;;;5065323;28;20238;-83
2022/05/18 06:28:28;;;;;;;5.35;2.90;;;21.60;99.50;;;;;;5059668;28;20389;-85
2022/05/18 06:30:54;;;;;;;4.35;2.92;;;21.70;99.90;;;;;;5064368;28;20025;-84
2022/05/18 06:33:20;;;;;;;4.75;3.00;;;21.30;99.90;;;;;;5065433;28;20025;-84
2022/05/18 06:35:51;;;;;;;6.35;2.90;;;21.30;99.90;;;;;;5067351;28;20028;-84
2022/05/18 06:38:17;;;;;;;6.45;3.10;;;21.40;99.90;;;;;;5066678;28;20116;-85
2022/05/18 06:43:27;;;;;;;6.50;2.63;;;21.40;99.90;;;;;;5062227;28;20043;-84
2022/05/18 06:45:53;;;;;;;8.65;3.05;;;21.40;99.90;;;;;;5064334;28;20024;-85
2022/05/18 06:48:19;;;;;;;5.28;2.67;;;21.40;99.90;;;;;;5066383;28;20031;-85
2022/05/18 06:50:45;;;;;;;6.30;3.00;;;21.40;99.90;;;;;;5068986;28;20123;-82
2022/05/18 06:53:10;;;;;;;6.85;3.20;;;21.30;99.90;;;;;;5064192;28;20064;-84
2022/05/18 06:55:36;;;;;;;6.05;2.83;;;21.40;99.90;;;;;;5052857;28;20032;-84
2022/05/18 06:58:02;;;;;;;5.65;2.95;;;21.40;99.90;;;;;;5048829;28;20033;-82
2022/05/18 07:00:30;;;;;;;9.73;3.03;;;21.60;99.90;;;;;;5069561;28;20029;-85
2022/05/18 07:02:56;;;;;;;6.50;3.00;;;21.60;99.90;;;;;;5060062;28;20053;-82
2022/05/18 07:05:22;;;;;;;6.38;2.75;;;21.70;99.90;;;;;;5044499;28;20061;-84
2022/05/18 07:07:47;;;;;;;9.95;2.70;;;21.70;99.90;;;;;;5060120;28;20020;-81
2022/05/18 07:10:13;;;;;;;5.38;3.03;;;21.70;99.90;;;;;;5059012;28;20021;-83
2022/05/18 07:12:39;;;;;;;4.93;2.78;;;21.70;99.90;;;;;;5064036;28;20091;-83
2022/05/18 07:15:06;;;;;;;4.78;3.08;;;21.70;99.90;;;;;;5056149;28;20051;-83
2022/05/18 07:17:32;;;;;;;5.03;3.17;;;21.70;99.90;;;;;;5068701;28;20039;-85
2022/05/18 07:19:57;;;;;;;5.15;2.90;;;21.80;99.90;;;;;;5065737;28;20092;-83
2022/05/18 07:22:23;;;;;;;4.85;2.92;;;21.90;99.90;;;;;;5056869;28;20151;-84
2022/05/18 07:24:50;;;;;;;5.35;2.60;;;22.00;99.80;;;;;;5056527;28;20032;-83
2022/05/18 07:27:16;;;;;;;4.10;2.88;;;22.10;99.70;;;;;;5064104;28;20024;-81
2022/05/18 07:29:42;;;;;;;4.65;2.80;;;22.20;99.60;;;;;;5061575;28;20066;-83
2022/05/18 07:32:14;;;;;;;5.30;2.40;;;22.30;99.50;;;;;;5063483;28;20283;-81
2022/05/18 07:34:44;;;;;;;6.68;2.95;;;22.40;99.60;;;;;;5056761;28;20050;-83
2022/05/18 07:37:10;;;;;;;5.20;2.85;;;22.50;99.60;;;;;;5056190;28;20033;-82
2022/05/18 07:39:37;;;;;;;6.78;2.58;;;22.60;99.20;;;;;;5057019;28;20093;-81
2022/05/18 07:42:06;;;;;;;9.38;2.78;;;22.70;99.20;;;;;;5043246;28;22084;-83
2022/05/18 07:44:33;;;;;;;6.30;2.75;;;22.90;98.20;;;;;;5062993;28;20047;-82
2022/05/18 07:46:59;;;;;;;3.63;2.40;;;22.90;97.70;;;;;;5072434;28;20032;-82
2022/05/18 07:49:25;;;;;;;4.47;2.40;;;22.90;97.50;;;;;;5061574;28;20035;-80
2022/05/18 07:51:51;;;;;;;4.55;2.67;;;23.00;97.50;;;;;;5075180;28;20081;-81
2022/05/18 07:54:17;;;;;;;5.22;2.70;;;23.10;97.50;;;;;;5065513;28;20036;-80
2022/05/18 07:56:43;;;;;;;5.03;2.50;;;23.30;97.30;;;;;;5074919;28;20031;-81
2022/05/18 07:59:11;;;;;;;5.10;2.40;;;23.40;97.00;;;;;;5070575;28;20072;-80
2022/05/18 08:01:36;;;;;;;4.18;2.10;;;23.50;97.10;;;;;;5066288;28;20088;-78
2022/05/18 08:04:03;;;;;;;4.15;2.58;;;24.00;97.00;;;;;;5081913;28;20049;-82
2022/05/18 08:06:30;;;;;;;4.55;2.30;;;23.70;96.50;;;;;;5060855;28;20035;-79
2022/05/18 08:08:55;;;;;;;5.40;2.30;;;23.90;96.30;;;;;;5076290;28;20079;-80
2022/05/18 08:16:50;;;;;;;4.05;2.30;;;24.20;95.50;;;;;;5076780;28;20085;-82
2022/05/18 08:19:17;;;;;;;3.90;2.60;;;24.40;95.10;;;;;;5091262;28;20028;-81
2022/05/18 08:21:44;;;;;;;4.75;2.42;;;24.50;95.00;;;;;;5074773;28;20020;-81
2022/05/18 08:24:11;;;;;;;5.90;2.78;;;24.50;94.70;;;;;;5065144;28;20024;-81
2022/05/18 08:26:37;;;;;;;5.30;2.50;;;24.70;94.40;;;;;;5049791;28;20033;-81
2022/05/18 08:29:05;;;;;;;6.75;2.88;;;24.70;94.00;;;;;;5067764;28;20052;-84
2022/05/18 08:31:31;;;;;;;3.67;2.38;;;24.70;94.00;;;;;;5059792;28;20374;-80
2022/05/18 08:33:57;;;;;;;6.78;2.70;;;24.80;93.90;;;;;;5080822;28;20032;-80
2022/05/18 08:36:26;;;;;;;6.85;2.55;;;24.90;93.90;;;;;;5076242;28;20044;-81
2022/05/18 08:38:55;;;;;;;4.55;2.42;;;25.00;93.60;;;;;;5070777;28;20036;-82
2022/05/18 08:41:36;;;;;;;3.97;2.30;;;25.00;93.20;;;;;;5065229;28;20036;-80
2022/05/18 08:44:06;;;;;;;4.13;2.42;;;25.20;93.20;;;;;;5075042;28;20021;-81
2022/05/18 08:46:46;;;;;;;5.82;2.38;;;25.20;92.70;;;;;;5084046;28;20021;-82
2022/05/18 08:49:12;;;;;;;8.77;2.65;;;25.20;92.70;;;;;;5069919;28;20028;-82
2022/05/18 08:51:48;;;;;;;5.55;2.75;;;25.30;92.80;;;;;;5062953;28;20035;-80
2022/05/18 08:54:21;;;;;;;5.43;2.53;;;25.50;92.10;;;;;;5079559;28;20036;-81
2022/05/18 08:56:47;;;;;;;4.38;2.10;;;25.70;91.50;;;;;;5077782;28;20036;-82
2022/05/18 08:59:29;;;;;;;5.53;2.40;;;25.60;91.60;;;;;;5070401;28;20559;-80
2022/05/18 09:01:58;;;;;;;4.63;2.30;;;25.70;91.20;;;;;;5071177;28;20075;-80
2022/05/18 09:04:31;;;;;;;5.27;2.50;;;25.70;91.20;;;;;;5087412;28;20024;-82
2022/05/18 09:07:04;;;;;;;5.63;2.58;;;25.80;91.20;;;;;;5058623;28;20032;-82
2022/05/18 09:12:25;;;;;;;5.43;2.80;;;26.10;91.30;;;;;;5075521;28;20057;-81
2022/05/18 09:14:52;;;;;;;3.55;2.47;;;26.10;91.00;;;;;;5063728;28;20131;-80
2022/05/18 09:17:40;;;;;;;5.40;3.00;;;26.20;90.90;;;;;;5088995;28;20030;-81
2022/05/18 09:20:21;;;;;;;5.03;2.47;;;26.50;90.70;;;;;;5072311;28;20104;-81
2022/05/18 09:23:02;;;;;;;3.60;2.30;;;26.60;89.70;;;;;;5064150;28;20033;-78
2022/05/18 09:25:48;;;;;;;4.28;2.58;;;26.70;89.60;;;;;;5064730;28;20092;-81
2022/05/18 09:28:35;;;;;;;7.45;2.60;;;26.80;89.20;;;;;;5069878;28;20044;-81
2022/05/18 09:31:28;;;;;;;4.18;2.50;;;26.90;88.90;;;;;;5079851;28;20104;-81
2022/05/18 09:33:56;;;;;;;3.92;2.30;;;27.00;88.40;;;;;;5096056;28;20109;-82
2022/05/18 09:36:51;;;;;;;6.13;2.95;;;26.90;87.80;;;;;;5081786;28;20386;-81
2022/05/18 09:39:23;;;;;;;4.40;2.80;;;27.00;88.20;;;;;;5086399;28;20028;-80
2022/05/18 09:42:04;;;;;;;5.57;2.70;;;27.20;88.50;;;;;;5063560;28;20055;-81
2022/05/18 09:44:42;;;;;;;3.70;2.47;;;27.40;88.10;;;;;;5065271;28;20036;-82
2022/05/18 09:47:12;;;;;;;4.05;2.38;;;27.50;86.90;;;;;;5074208;28;21053;-83
2022/05/18 09:49:40;;;;;;;;;;;27.60;86.90;;;;;;5157708;22;20041;-82
2022/05/18 09:52:06;;;;;;;10.10;2.60;;;27.60;86.30;;;;;;5043291;28;19909;-83
2022/05/18 09:54:35;;;;;;;4.93;2.20;;;27.60;86.50;;;;;;5047213;28;20033;-83
2022/05/18 09:57:18;;;;;;;5.80;2.67;;;27.60;86.00;;;;;;5047626;28;20029;-82
2022/05/18 10:00:18;;;;;;;5.47;2.60;;;27.50;86.20;;;;;;5035263;28;20060;-81
2022/05/18 10:08:30;;;;;;;4.93;2.50;;;27.80;85.10;;;;;;5029099;28;20391;-80
2022/05/18 10:11:12;;;;;;;6.32;2.47;;;28.00;84.10;;;;;;5026833;28;20021;-81
2022/05/18 10:14:14;;;;;;;4.32;2.53;;;28.20;83.90;;;;;;5043682;28;20080;-80
2022/05/18 10:16:44;;;;;;;6.03;2.30;;;28.20;82.50;;;;;;5043970;28;20049;-80
2022/05/18 10:19:38;;;;;;;6.95;2.63;;;28.30;81.60;;;;;;5033174;28;20304;-80
2022/05/18 10:22:05;;;;;;;4.55;2.22;;;28.30;80.40;;;;;;5015628;28;20159;-81
2022/05/18 10:25:08;;;;;;;3.72;1.85;;;28.40;79.20;;;;;;5039711;28;20025;-82
2022/05/18 10:27:38;;;;;;;4.70;2.20;;;28.50;79.10;;;;;;5042538;28;20026;-81
2022/05/18 10:30:08;;;;;;;4.47;2.30;;;28.50;78.80;;;;;;5040203;28;20017;-84
2022/05/18 10:32:52;;;;;;;4.60;2.47;;;28.60;78.40;;;;;;5058435;28;20037;-83
2022/05/18 10:35:32;;;;;;;6.25;2.42;;;28.60;77.80;;;;;;5042513;28;20009;-85
2022/05/18 10:38:03;;;;;;;4.05;2.20;;;28.90;77.40;;;;;;5048871;28;20181;-85
2022/05/18 10:40:29;;;;;;;3.33;1.90;;;28.90;75.50;;;;;;5045646;28;20033;-82
2022/05/18 10:43:10;;;;;;;5.88;2.28;;;29.00;74.30;;;;;;5049143;28;20014;-82
2022/05/18 10:45:37;;;;;;;6.35;3.10;;;29.20;73.80;;;;;;5062633;28;20036;-82
2022/05/18 10:48:17;;;;;;;3.67;2.20;;;29.30;73.40;;;;;;5036842;28;20025;-81
2022/05/18 10:50:46;;;;;;;4.03;2.00;;;29.30;73.40;;;;;;5034798;28;20167;-81
2022/05/18 10:53:17;;;;;;;3.95;2.30;;;29.30;71.10;;;;;;5028394;28;20029;-82
2022/05/18 10:55:59;;;;;;;4.82;2.08;;;29.20;71.80;;;;;;5025388;28;20104;-81
2022/05/18 10:58:39;;;;;;;4.95;2.15;;;29.40;71.60;;;;;;5045519;28;20507;-81
2022/05/18 11:01:10;;;;;;;6.13;2.20;;;29.50;71.20;;;;;;5049486;28;20030;-81
2022/05/18 11:03:55;;;;;;;3.83;2.22;;;29.60;72.70;;;;;;5031051;28;20033;-82
2022/05/18 11:06:23;;;;;;;5.30;2.28;;;29.70;71.70;;;;;;5023843;28;20072;-82
2022/05/18 11:08:50;;;;;;;2.97;2.03;;;29.80;70.70;;;;;;5025183;28;20036;-85
2022/05/18 11:11:33;;;;;;;4.75;2.10;;;29.70;70.40;;;;;;5029653;28;20032;-81
2022/05/18 11:14:30;;;;;;;4.05;2.08;;;29.70;70.40;;;;;;5036626;28;20200;-81
2022/05/18 11:17:17;;;;;;;3.85;2.10;;;29.70;70.80;;;;;;5021495;28;20033;-82
2022/05/18 11:20:34;;;;;;;3.63;2.00;;;29.90;69.50;;;;;;5039546;28;20324;-81
2022/05/18 11:23:15;;;;;;;6.57;2.13;;;29.90;69.60;;;;;;5006094;28;20041;-81
2022/05/18 11:26:18;;;;;;;4.97;2.25;;;29.80;69.20;;;;;;5027726;28;20088;-83
2022/05/18 11:29:09;;;;;;;6.68;2.20;;;30.10;69.20;;;;;;5044811;28;20053;-84
2022/05/18 11:31:51;;;;;;;4.93;2.30;;;30.00;68.70;;;;;;5028415;28;20025;-83
2022/05/18 11:34:32;;;;;;;3.78;2.10;;;30.10;68.20;;;;;;5046909;28;20064;-82
2022/05/18 11:37:13;;;;;;;3.45;1.95;;;30.10;68.90;;;;;;5028639;28;20029;-85
2022/05/18 11:39:48;;;;;;;3.45;2.10;;;30.20;68.80;;;;;;5043795;28;20034;-83
2022/05/18 11:42:32;;;;;;;3.15;1.80;;;30.20;67.50;;;;;;5042375;28;20037;-83
2022/05/18 11:45:13;;;;;;;6.38;2.35;;;30.30;66.10;;;;;;5022776;28;20083;-82
2022/05/18 11:48:17;;;;;;;3.40;1.80;;;30.00;66.50;;;;;;5022313;28;20636;-82
2022/05/18 11:51:20;;;;;;;2.97;2.10;;;29.90;67.00;;;;;;5028137;28;20136;-85
2022/05/18 11:54:20;;;;;;;2.55;1.83;;;29.80;66.50;;;;;;5035183;28;20510;-83
2022/05/18 11:57:07;;;;;;;3.05;1.80;;;30.00;67.00;;;;;;5033336;28;20126;-81
2022/05/18 12:00:03;;;;;;;3.28;2.00;;;29.10;66.50;;;;;;5046912;28;20022;-82
2022/05/18 12:02:38;;;;;;;3.72;1.92;;;29.90;66.50;;;;;;5031353;28;21223;-84
2022/05/18 12:05:26;;;;;;;4.03;2.28;;;29.90;66.00;;;;;;5041322;28;20048;-81
2022/05/18 12:08:27;;;;;;;4.22;2.25;;;29.60;66.20;;;;;;5033030;28;20021;-83
2022/05/18 12:11:28;;;;;;;4.53;1.90;;;29.50;65.70;;;;;;5031319;28;20022;-83
2022/05/18 12:14:02;;;;;;;4.45;1.85;;;29.40;66.00;;;;;;5045875;28;20487;-81
2022/05/18 12:16:53;;;;;;;3.92;1.85;;;29.50;66.90;;;;;;5032045;28;20092;-83
2022/05/18 12:19:25;;;;;;;4.47;2.00;;;29.70;66.90;;;;;;5029416;28;20033;-83
2022/05/18 12:21:55;;;;;;;3.33;2.10;;;30.00;66.20;;;;;;5030994;28;20029;-85
2022/05/18 12:24:23;;;;;;;3.33;2.17;;;30.10;65.00;;;;;;5026799;28;20034;-83
2022/05/18 12:26:49;;;;;;;2.95;1.98;;;30.30;64.80;;;;;;5031925;28;20382;-84
2022/05/18 12:29:20;;;;;;;3.10;2.00;;;30.20;65.00;;;;;;5027430;28;20022;-85
2022/05/18 12:31:47;;;;;;;5.05;2.30;;;30.40;65.50;;;;;;5032732;28;20086;-83
2022/05/18 12:34:12;;;;;;;5.53;2.25;;;30.50;63.60;;;;;;5034643;28;20034;-83
2022/05/18 12:36:44;;;;;;;3.08;2.08;;;30.40;64.50;;;;;;5028095;28;20030;-86
2022/05/18 12:39:31;;;;;;;4.13;1.92;;;30.40;64.10;;;;;;5029654;28;20120;-84
2022/05/18 12:42:00;;;;;;;3.55;1.92;;;30.50;63.30;;;;;;5028706;28;20045;-84
2022/05/18 12:44:37;;;;;;;8.00;1.77;;;30.70;63.80;;;;;;5028711;28;20450;-81
2022/05/18 12:47:17;;;;;;;3.17;1.98;;;31.00;63.20;;;;;;5042198;28;20026;-84
2022/05/18 12:49:44;;;;;;;2.70;1.70;;;31.00;62.50;;;;;;5035909;28;20043;-84
2022/05/18 12:52:30;;;;;;;5.13;2.05;;;31.00;62.40;;;;;;5027715;28;20030;-83
2022/05/18 12:55:03;;;;;;;4.45;2.00;;;31.10;62.00;;;;;;5031804;28;20038;-84
2022/05/18 12:57:41;;;;;;;5.13;2.00;;;31.00;61.70;;;;;;5041573;28;20097;-85
2022/05/18 13:00:24;;;;;;;4.47;2.08;;;31.00;62.00;;;;;;5026872;28;20163;-84
2022/05/18 13:02:55;;;;;;;6.18;2.05;;;30.90;61.60;;;;;;5026654;28;20061;-84
2022/05/18 13:05:26;;;;;;;6.97;1.98;;;30.80;61.70;;;;;;5027982;28;20030;-82
2022/05/18 13:08:03;;;;;;;5.70;2.00;;;30.40;61.40;;;;;;5031900;28;20089;-83
2022/05/18 13:10:33;;;;;;;4.88;1.90;;;30.30;61.70;;;;;;5037994;28;20033;-82
2022/05/18 13:13:02;;;;;;;2.75;1.80;;;30.30;61.80;;;;;;5037774;28;20022;-82
2022/05/18 13:15:53;;;;;;;3.25;1.85;;;30.30;61.60;;;;;;5035058;28;20085;-83
2022/05/18 13:18:27;;;;;;;3.78;2.00;;;30.20;61.10;;;;;;5046156;28;20044;-83
2022/05/18 13:21:07;;;;;;;3.13;1.98;;;30.20;61.30;;;;;;5043410;28;20033;-85
2022/05/18 13:24:05;;;;;;;4.50;1.92;;;30.20;60.80;;;;;;5050827;28;20033;-82
2022/05/18 13:26:34;;;;;;;2.72;1.55;;;30.10;60.60;;;;;;5028341;28;20064;-82
2022/05/18 13:29:27;;;;;;;4.22;2.00;;;30.00;60.90;;;;;;5034389;28;20022;-83
2022/05/18 13:32:01;;;;;;;3.88;1.95;;;30.30;60.80;;;;;;5037175;28;20030;-84